Flight Track Log - Related Links

Times and Time Zones

All times are in EDT time to prevent confusion due to time zone crossing. See the CSN3252 flight status page for this flight to view local times or setup timezone preferences in your user account.

Time Position Orientation Groundspeed Altitude Reporting Facility
EDT Latitude Longitude Course Direction KTS MPH feet Rate Location/Type
Thu 08:08:00 AM 31.1429 121.2168 242° Southwest  Level Estimated
Thu 08:09:00 AM 31.0879 121.0974 242° Southwest  Level Estimated
Thu 08:10:00 AM 31.0327 120.9781 242° Southwest  Level Estimated
Thu 08:11:00 AM 30.9774 120.8590 242° Southwest  Level Estimated
Thu 08:12:00 AM 30.9220 120.7401 242° Southwest  Level Estimated
Thu 08:13:00 AM 30.8665 120.6212 241° Southwest  Level Estimated
Thu 08:14:00 AM 30.8109 120.5025 241° Southwest  Level Estimated
Thu 08:15:00 AM 30.7552 120.3840 241° Southwest  Level Estimated
Thu 08:16:00 AM 30.6994 120.2656 241° Southwest  Level Estimated
Thu 08:17:00 AM 30.6435 120.1473 241° Southwest  Level Estimated
Thu 08:18:00 AM 30.5875 120.0291 241° Southwest  Level Estimated
Thu 08:19:00 AM 30.5313 119.9111 241° Southwest  Level Estimated
Thu 08:20:00 AM 30.4751 119.7933 241° Southwest  Level Estimated
Thu 08:21:00 AM 30.4187 119.6755 241° Southwest  Level Estimated
Thu 08:22:00 AM 30.3622 119.5579 241° Southwest  Level Estimated
Thu 08:23:00 AM 30.3057 119.4404 241° Southwest  Level Estimated
Thu 08:24:00 AM 30.2490 119.3231 241° Southwest  Level Estimated
Thu 08:25:00 AM 30.1922 119.2059 241° Southwest  Level Estimated
Thu 08:26:00 AM 30.1354 119.0889 241° Southwest  Level Estimated
Thu 08:27:00 AM 30.0784 118.9719 241° Southwest  Level Estimated
Thu 08:28:00 AM 30.0213 118.8551 241° Southwest  Level Estimated
Thu 08:29:00 AM 29.9641 118.7385 241° Southwest  Level Estimated
Thu 08:30:00 AM 29.9068 118.6220 240° Southwest  Level Estimated
Thu 08:31:00 AM 29.8494 118.5056 240° Southwest  Level Estimated
Thu 08:32:00 AM 29.7920 118.3893 240° Southwest  Level Estimated
Thu 08:33:00 AM 29.7344 118.2732 240° Southwest  Level Estimated
Thu 08:34:00 AM 29.6767 118.1572 240° Southwest  Level Estimated
Thu 08:35:00 AM 29.6189 118.0414 240° Southwest  Level Estimated
Thu 08:36:00 AM 29.5610 117.9257 240° Southwest  Level Estimated
Thu 08:37:00 AM 29.5030 117.8101 240° Southwest  Level Estimated
Thu 08:38:00 AM 29.4449 117.6946 240° Southwest  Level Estimated
Thu 08:39:00 AM 29.3867 117.5793 240° Southwest  Level Estimated
Thu 08:40:00 AM 29.3284 117.4641 240° Southwest  Level Estimated
Thu 08:41:00 AM 29.2700 117.3490 240° Southwest  Level Estimated
Thu 08:42:00 AM 29.2115 117.2341 240° Southwest  Level Estimated
Thu 08:43:00 AM 29.1529 117.1193 240° Southwest  Level Estimated
Thu 08:44:00 AM 29.0942 117.0046 240° Southwest  Level Estimated
Thu 08:45:00 AM 29.0354 116.8901 240° Southwest  Level Estimated
Thu 08:46:00 AM 28.9765 116.7757 240° Southwest  Level Estimated
Thu 08:47:00 AM 28.9175 116.6614 239° Southwest  Level Estimated
Thu 08:48:00 AM 28.8585 116.5473 239° Southwest  Level Estimated
Thu 08:49:00 AM 28.7993 116.4333 239° Southwest  Level Estimated
Thu 08:50:00 AM 28.7400 116.3194 239° Southwest  Level Estimated
Thu 08:51:00 AM 28.6807 116.2056 239° Southwest  Level Estimated
Thu 08:52:00 AM 28.6212 116.0920 239° Southwest  Level Estimated
Thu 08:53:00 AM 28.5617 115.9785 239° Southwest  Level Estimated
Thu 08:54:00 AM 28.5020 115.8651 239° Southwest  Level Estimated
Thu 08:55:00 AM 28.4423 115.7519 239° Southwest  Level Estimated
Thu 08:56:00 AM 28.3824 115.6388 239° Southwest  Level Estimated
Thu 08:57:00 AM 28.3225 115.5258 239° Southwest  Level Estimated
Thu 08:58:00 AM 28.2625 115.4129 239° Southwest  Level Estimated
Thu 08:59:00 AM 28.2024 115.3002 239° Southwest  Level Estimated
Thu 09:00:00 AM 28.1422 115.1876 239° Southwest  Level Estimated
Thu 09:01:00 AM 28.0819 115.0751 239° Southwest  Level Estimated
Thu 09:02:00 AM 28.0215 114.9628 239° Southwest  Level Estimated
Thu 09:03:00 AM 27.9610 114.8505 239° Southwest  Level Estimated
Thu 09:04:00 AM 27.9004 114.7384 239° Southwest  Level Estimated
Thu 09:05:00 AM 27.8398 114.6265 239° Southwest  Level Estimated
Thu 09:06:00 AM 27.7790 114.5146 238° Southwest  Level Estimated
Thu 09:07:00 AM 27.7182 114.4029 238° Southwest  Level Estimated
Thu 09:08:00 AM 27.6572 114.2913 238° Southwest  Level Estimated
Thu 09:09:00 AM 27.5962 114.1798 238° Southwest  Level Estimated
Thu 09:10:00 AM 27.5351 114.0685 238° Southwest  Level Estimated
Thu 09:11:00 AM 27.4739 113.9573 238° Southwest  Level Estimated
Thu 09:12:00 AM 27.4126 113.8462 238° Southwest  Level Estimated
Thu 09:13:00 AM 27.3513 113.7352 238° Southwest  Level Estimated
Thu 09:14:00 AM 27.2898 113.6243 238° Southwest  Level Estimated
Thu 09:15:00 AM 27.2283 113.5136 238° Southwest  Level Estimated
Thu 09:16:00 AM 27.1666 113.4030 238° Southwest  Level Estimated
Thu 09:17:00 AM 27.1049 113.2925 238° Southwest  Level Estimated
Thu 09:18:00 AM 27.0431 113.1821 238° Southwest  Level Estimated
Thu 09:19:00 AM 26.9812 113.0719 238° Southwest  Level Estimated
Thu 09:20:00 AM 26.9192 112.9617 238° Southwest  Level Estimated
Thu 09:21:00 AM 26.8571 112.8518 238° Southwest  Level Estimated
Thu 09:22:00 AM 26.7950 112.7419 238° Southwest  Level Estimated
Thu 09:23:00 AM 26.7327 112.6321 238° Southwest  Level Estimated
Thu 09:24:00 AM 26.6704 112.5225 238° Southwest  Level Estimated
Thu 09:25:00 AM 26.6080 112.4129 238° Southwest  Level Estimated
Thu 09:26:00 AM 26.5455 112.3036 237° Southwest  Level Estimated
Thu 09:27:00 AM 26.4830 112.1943 237° Southwest  Level Estimated
Thu 09:28:00 AM 26.4203 112.0851 237° Southwest  Level Estimated
Thu 09:29:00 AM 26.3576 111.9761 237° Southwest  Level Estimated
Thu 09:30:00 AM 26.2947 111.8671 237° Southwest  Level Estimated
Thu 09:31:00 AM 26.2318 111.7583 237° Southwest  Level Estimated
Thu 09:32:00 AM 26.1689 111.6496 237° Southwest  Level Estimated
Thu 09:33:00 AM 26.1058 111.5411 237° Southwest  Level Estimated
Thu 09:34:00 AM 26.0426 111.4326 237° Southwest  Level Estimated
Thu 09:35:00 AM 25.9794 111.3243 237° Southwest  Level Estimated
Thu 09:36:00 AM 25.9161 111.2160 237° Southwest  Level Estimated
Thu 09:37:00 AM 25.8527 111.1079 237° Southwest  Level Estimated
Thu 09:38:00 AM 25.7892 110.9999 237° Southwest  Level Estimated
Thu 09:39:00 AM 25.7257 110.8921 237° Southwest  Level Estimated
Thu 09:40:00 AM 25.6621 110.7843 237° Southwest  Level Estimated
Thu 09:41:00 AM 25.5984 110.6767 237° Southwest  Level Estimated
Thu 09:42:00 AM 25.5346 110.5691 237° Southwest  Level Estimated
Thu 09:43:00 AM 25.4707 110.4617 237° Southwest  Level Estimated
Thu 09:44:00 AM 25.4068 110.3544 237° Southwest  Level Estimated
Thu 09:45:00 AM 25.3428 110.2472 237° Southwest  Level Estimated
Thu 09:46:00 AM 25.2787 110.1401 237° Southwest  Level Estimated
Thu 09:47:00 AM 25.2181 110.0392 236° Southwest  Level Estimated
Thu 09:48:00 AM 25.2181 110.0392 214° Southwest  Level Estimated
Thu 09:49:00 AM 25.2181 110.0392 214° Southwest  Level Estimated
Thu 09:50:00 AM 25.2181 110.0392 214° Southwest  Level Estimated
Thu 09:51:00 AM 25.2181 110.0392 214° Southwest  Level Estimated
Thu 09:52:00 AM 25.2181 110.0392 214° Southwest  Level Estimated
Thu 09:53:00 AM 25.2181 110.0392 214° Southwest  Level Estimated
Thu 09:54:00 AM 25.2181 110.0392 214° Southwest  Level Estimated
Thu 09:55:00 AM 25.2181 110.0392 214° Southwest  Level Estimated
Thu 09:56:00 AM 25.2181 110.0392 214° Southwest  Level Estimated
Thu 09:57:00 AM 25.2181 110.0392 214° Southwest  Level Estimated
Thu 09:58:00 AM 25.2181 110.0392 214° Southwest  Level Estimated
Thu 09:59:00 AM 25.2181 110.0392 214° Southwest  Level Estimated
Thu 10:00:00 AM 25.2181 110.0392 214° Southwest  Level Estimated
Thu 10:01:00 AM 25.2181 110.0392 214° Southwest  Level Estimated

Login

Don't have an account? Register now (free) for customized features, flight alerts, and more!